sensor_id;sensor_type;location;lat;lon;timestamp;pressure;altitude;pressure_sealevel;temperature;humidity
79131;BME280;70394;45.194;9.142;2023-07-29T00:00:41;100431.25;;;27.57;50.27
79131;BME280;70394;45.194;9.142;2023-07-29T00:03:07;100426.88;;;27.56;50.55
79131;BME280;70394;45.194;9.142;2023-07-29T00:05:33;100427.69;;;27.57;50.63
79131;BME280;70394;45.194;9.142;2023-07-29T00:07:58;100427.69;;;27.57;50.05
79131;BME280;70394;45.194;9.142;2023-07-29T00:10:23;100421.59;;;27.55;50.63
79131;BME280;70394;45.194;9.142;2023-07-29T00:12:49;100422.28;;;27.57;50.10
79131;BME280;70394;45.194;9.142;2023-07-29T00:15:14;100415.16;;;27.56;50.49
79131;BME280;70394;45.194;9.142;2023-07-29T00:17:39;100417.88;;;27.56;50.92
79131;BME280;70394;45.194;9.142;2023-07-29T00:20:06;100417.53;;;27.59;50.01
79131;BME280;70394;45.194;9.142;2023-07-29T00:22:31;100415.16;;;27.56;50.79
79131;BME280;70394;45.194;9.142;2023-07-29T00:24:57;100416.03;;;27.56;50.46
79131;BME280;70394;45.194;9.142;2023-07-29T00:27:24;100410.97;;;27.53;50.44
79131;BME280;70394;45.194;9.142;2023-07-29T00:29:49;100416.84;;;27.57;51.06
79131;BME280;70394;45.194;9.142;2023-07-29T00:32:15;100414.16;;;27.57;51.01
79131;BME280;70394;45.194;9.142;2023-07-29T00:34:40;100412.31;;;27.57;50.48
79131;BME280;70394;45.194;9.142;2023-07-29T00:37:05;100418.75;;;27.56;50.97
79131;BME280;70394;45.194;9.142;2023-07-29T00:39:34;100408.06;;;27.55;51.01
79131;BME280;70394;45.194;9.142;2023-07-29T00:41:59;100400.59;;;27.57;50.79
79131;BME280;70394;45.194;9.142;2023-07-29T00:44:25;100398.09;;;27.55;51.00
79131;BME280;70394;45.194;9.142;2023-07-29T00:46:54;100393.84;;;27.52;50.95
79131;BME280;70394;45.194;9.142;2023-07-29T00:49:20;100399.78;;;27.56;50.61
79131;BME280;70394;45.194;9.142;2023-07-29T00:51:46;100388.94;;;27.56;50.39
79131;BME280;70394;45.194;9.142;2023-07-29T00:54:12;100381.66;;;27.57;51.04
79131;BME280;70394;45.194;9.142;2023-07-29T00:56:37;100385.38;;;27.56;50.64
79131;BME280;70394;45.194;9.142;2023-07-29T00:59:03;100402.66;;;27.55;50.94
79131;BME280;70394;45.194;9.142;2023-07-29T01:01:29;100392.69;;;27.55;50.89
79131;BME280;70394;45.194;9.142;2023-07-29T01:03:55;100395.19;;;27.57;51.18
79131;BME280;70394;45.194;9.142;2023-07-29T01:16:47;100411.78;;;27.54;50.66
79131;BME280;70394;45.194;9.142;2023-07-29T01:20:01;100415.16;;;27.56;50.90
79131;BME280;70394;45.194;9.142;2023-07-29T01:22:31;100418.75;;;27.56;50.69
79131;BME280;70394;45.194;9.142;2023-07-29T01:24:58;100426.00;;;27.56;50.73
79131;BME280;70394;45.194;9.142;2023-07-29T01:27:23;100421.59;;;27.55;50.75
79131;BME280;70394;45.194;9.142;2023-07-29T01:29:49;100416.03;;;27.56;50.55
79131;BME280;70394;45.194;9.142;2023-07-29T01:32:21;100426.88;;;27.56;50.71
79131;BME280;70394;45.194;9.142;2023-07-29T01:38:05;100422.28;;;27.57;50.40
79131;BME280;70394;45.194;9.142;2023-07-29T01:40:32;100425.84;;;27.57;50.71
79131;BME280;70394;45.194;9.142;2023-07-29T01:42:58;100425.50;;;27.60;50.81
79131;BME280;70394;45.194;9.142;2023-07-29T01:45:24;100420.91;;;27.61;50.60
79131;BME280;70394;45.194;9.142;2023-07-29T01:47:50;100414.81;;;27.59;50.89
79131;BME280;70394;45.194;9.142;2023-07-29T01:50:16;100416.50;;;27.60;50.86
79131;BME280;70394;45.194;9.142;2023-07-29T01:52:41;100409.41;;;27.59;50.43
79131;BME280;70394;45.194;9.142;2023-07-29T01:55:07;100411.44;;;27.57;50.58
79131;BME280;70394;45.194;9.142;2023-07-29T01:57:33;100400.81;;;27.55;51.00
79131;BME280;70394;45.194;9.142;2023-07-29T01:59:58;100405.69;;;27.60;50.61
79131;BME280;70394;45.194;9.142;2023-07-29T02:02:24;100399.59;;;27.58;50.56
79131;BME280;70394;45.194;9.142;2023-07-29T02:04:49;100399.44;;;27.59;50.49
79131;BME280;70394;45.194;9.142;2023-07-29T02:07:17;100389.44;;;27.60;50.60
79131;BME280;70394;45.194;9.142;2023-07-29T02:09:43;100399.44;;;27.59;50.70
79131;BME280;70394;45.194;9.142;2023-07-29T02:12:08;100413.81;;;27.60;50.70
79131;BME280;70394;45.194;9.142;2023-07-29T02:14:34;100428.06;;;27.62;51.31
79131;BME280;70394;45.194;9.142;2023-07-29T02:16:59;100422.28;;;27.57;51.17
79131;BME280;70394;45.194;9.142;2023-07-29T02:19:24;100439.03;;;27.60;50.16
79131;BME280;70394;45.194;9.142;2023-07-29T02:21:50;100441.06;;;27.58;51.12
79131;BME280;70394;45.194;9.142;2023-07-29T02:24:15;100430.91;;;27.60;51.01
79131;BME280;70394;45.194;9.142;2023-07-29T02:26:41;100426.69;;;27.58;51.16
79131;BME280;70394;45.194;9.142;2023-07-29T02:29:07;100431.06;;;27.59;50.86
79131;BME280;70394;45.194;9.142;2023-07-29T02:31:32;100427.53;;;27.58;51.17
79131;BME280;70394;45.194;9.142;2023-07-29T02:33:59;100423.97;;;27.58;51.55
79131;BME280;70394;45.194;9.142;2023-07-29T02:36:25;100424.81;;;27.58;50.91
79131;BME280;70394;45.194;9.142;2023-07-29T02:38:50;100410.41;;;27.58;51.02
79131;BME280;70394;45.194;9.142;2023-07-29T02:41:15;100404.34;;;27.56;51.20
79131;BME280;70394;45.194;9.142;2023-07-29T02:43:42;100397.22;;;27.55;51.11
79131;BME280;70394;45.194;9.142;2023-07-29T02:46:08;100400.44;;;27.58;51.22
79131;BME280;70394;45.194;9.142;2023-07-29T02:48:33;100402.50;;;27.56;51.35
79131;BME280;70394;45.194;9.142;2023-07-29T02:50:59;100406.88;;;27.57;51.25
79131;BME280;70394;45.194;9.142;2023-07-29T02:53:25;100409.94;;;27.54;51.39
79131;BME280;70394;45.194;9.142;2023-07-29T02:55:50;100413.13;;;27.58;51.13
79131;BME280;70394;45.194;9.142;2023-07-29T02:58:15;100405.34;;;27.55;50.92
79131;BME280;70394;45.194;9.142;2023-07-29T03:00:41;100401.81;;;27.54;50.79
79131;BME280;70394;45.194;9.142;2023-07-29T03:03:09;100405.00;;;27.58;51.00
79131;BME280;70394;45.194;9.142;2023-07-29T03:05:35;100411.44;;;27.57;51.19
79131;BME280;70394;45.194;9.142;2023-07-29T03:08:00;100407.72;;;27.58;51.29
79131;BME280;70394;45.194;9.142;2023-07-29T03:10:26;100410.78;;;27.55;51.22
79131;BME280;70394;45.194;9.142;2023-07-29T03:12:53;100413.13;;;27.58;51.63
79131;BME280;70394;45.194;9.142;2023-07-29T03:15:22;100416.03;;;27.56;51.57
79131;BME280;70394;45.194;9.142;2023-07-29T03:17:47;100415.50;;;27.52;51.23
79131;BME280;70394;45.194;9.142;2023-07-29T03:20:13;100422.28;;;27.57;50.90
79131;BME280;70394;45.194;9.142;2023-07-29T03:22:38;100409.75;;;27.47;51.08
79131;BME280;70394;45.194;9.142;2023-07-29T03:25:04;100427.69;;;27.57;51.04
79131;BME280;70394;45.194;9.142;2023-07-29T03:27:31;100422.13;;;27.58;51.43
79131;BME280;70394;45.194;9.142;2023-07-29T03:29:56;100416.34;;;27.61;51.59
79131;BME280;70394;45.194;9.142;2023-07-29T03:32:21;100407.56;;;27.59;51.29
79131;BME280;70394;45.194;9.142;2023-07-29T03:34:47;100395.53;;;27.54;50.75
79131;BME280;70394;45.194;9.142;2023-07-29T03:37:12;100390.63;;;27.57;50.89
79131;BME280;70394;45.194;9.142;2023-07-29T03:39:37;100395.19;;;27.57;51.22
79131;BME280;70394;45.194;9.142;2023-07-29T03:42:03;100406.88;;;27.57;51.44
79131;BME280;70394;45.194;9.142;2023-07-29T03:44:28;100407.22;;;27.54;51.07
79131;BME280;70394;45.194;9.142;2023-07-29T03:46:54;100398.91;;;27.56;51.15
79131;BME280;70394;45.194;9.142;2023-07-29T03:49:19;100395.19;;;27.57;51.08
79131;BME280;70394;45.194;9.142;2023-07-29T03:51:44;100405.88;;;27.58;51.08
79131;BME280;70394;45.194;9.142;2023-07-29T03:54:10;100412.31;;;27.57;51.28
79131;BME280;70394;45.194;9.142;2023-07-29T03:56:35;100419.56;;;27.57;50.90
79131;BME280;70394;45.194;9.142;2023-07-29T03:59:07;100407.03;;;27.56;51.20
79131;BME280;70394;45.194;9.142;2023-07-29T04:01:32;100420.25;;;27.59;51.53
79131;BME280;70394;45.194;9.142;2023-07-29T04:03:58;100436.69;;;27.57;51.20
79131;BME280;70394;45.194;9.142;2023-07-29T04:06:24;100434.78;;;27.58;51.71
79131;BME280;70394;45.194;9.142;2023-07-29T04:08:49;100447.31;;;27.59;51.41
79131;BME280;70394;45.194;9.142;2023-07-29T04:11:15;100451.03;;;27.58;51.58
79131;BME280;70394;45.194;9.142;2023-07-29T04:13:40;100457.31;;;27.58;51.59
79131;BME280;70394;45.194;9.142;2023-07-29T04:16:06;100461.06;;;27.57;52.37
79131;BME280;70394;45.194;9.142;2023-07-29T04:18:31;100458.34;;;27.57;51.57
79131;BME280;70394;45.194;9.142;2023-07-29T04:20:57;100458.50;;;27.56;51.58
79131;BME280;70394;45.194;9.142;2023-07-29T04:23:22;100460.19;;;27.57;52.21
79131;BME280;70394;45.194;9.142;2023-07-29T04:25:48;100460.53;;;27.54;52.09
79131;BME280;70394;45.194;9.142;2023-07-29T04:28:13;100466.47;;;27.57;52.36
79131;BME280;70394;45.194;9.142;2023-07-29T04:30:38;100467.63;;;27.55;51.92
79131;BME280;70394;45.194;9.142;2023-07-29T04:33:04;100485.56;;;27.56;51.73
79131;BME280;70394;45.194;9.142;2023-07-29T04:35:29;100484.91;;;27.54;51.91
79131;BME280;70394;45.194;9.142;2023-07-29T04:37:54;100486.59;;;27.55;51.47
79131;BME280;70394;45.194;9.142;2023-07-29T04:40:20;100481.19;;;27.55;52.09
79131;BME280;70394;45.194;9.142;2023-07-29T04:42:45;100475.59;;;27.56;52.47
79131;BME280;70394;45.194;9.142;2023-07-29T04:45:10;100479.34;;;27.55;51.94
79131;BME280;70394;45.194;9.142;2023-07-29T04:47:36;100473.91;;;27.55;52.09
79131;BME280;70394;45.194;9.142;2023-07-29T04:50:02;100471.38;;;27.54;52.16
79131;BME280;70394;45.194;9.142;2023-07-29T04:52:27;100471.38;;;27.54;52.24
79131;BME280;70394;45.194;9.142;2023-07-29T04:54:52;100465.94;;;27.54;51.64
79131;BME280;70394;45.194;9.142;2023-07-29T04:57:18;100475.94;;;27.53;52.15
79131;BME280;70394;45.194;9.142;2023-07-29T04:59:43;100471.38;;;27.54;52.14
79131;BME280;70394;45.194;9.142;2023-07-29T05:02:08;100471.38;;;27.54;52.05
79131;BME280;70394;45.194;9.142;2023-07-29T05:04:34;100471.38;;;27.54;52.06
79131;BME280;70394;45.194;9.142;2023-07-29T05:06:59;100462.22;;;27.55;51.90
79131;BME280;70394;45.194;9.142;2023-07-29T05:09:24;100473.72;;;27.57;51.77
79131;BME280;70394;45.194;9.142;2023-07-29T05:11:50;100472.03;;;27.56;51.87
79131;BME280;70394;45.194;9.142;2023-07-29T05:14:17;100475.25;;;27.59;52.09
79131;BME280;70394;45.194;9.142;2023-07-29T05:16:43;100471.69;;;27.59;52.16
79131;BME280;70394;45.194;9.142;2023-07-29T05:19:09;100470.19;;;27.56;52.30
79131;BME280;70394;45.194;9.142;2023-07-29T05:21:35;100478.13;;;27.58;51.97
79131;BME280;70394;45.194;9.142;2023-07-29T05:24:00;100482.72;;;27.57;52.12
79131;BME280;70394;45.194;9.142;2023-07-29T05:26:26;100481.03;;;27.56;51.89
79131;BME280;70394;45.194;9.142;2023-07-29T05:28:51;100483.53;;;27.58;52.00
79131;BME280;70394;45.194;9.142;2023-07-29T05:31:17;100484.41;;;27.58;52.15
79131;BME280;70394;45.194;9.142;2023-07-29T05:33:43;100481.19;;;27.55;51.60
79131;BME280;70394;45.194;9.142;2023-07-29T05:36:08;100488.13;;;27.57;52.22
79131;BME280;70394;45.194;9.142;2023-07-29T05:38:33;100486.44;;;27.56;51.94
79131;BME280;70394;45.194;9.142;2023-07-29T05:40:59;100483.53;;;27.58;51.92
79131;BME280;70394;45.194;9.142;2023-07-29T05:43:26;100482.50;;;27.34;54.26
79131;BME280;70394;45.194;9.142;2023-07-29T05:45:52;100493.06;;;26.94;55.88
79131;BME280;70394;45.194;9.142;2023-07-29T05:48:17;100500.19;;;26.69;56.79
79131;BME280;70394;45.194;9.142;2023-07-29T05:50:42;100494.38;;;26.55;56.99
79131;BME280;70394;45.194;9.142;2023-07-29T05:53:08;100496.53;;;26.43;57.64
79131;BME280;70394;45.194;9.142;2023-07-29T05:55:34;100492.75;;;26.36;57.85
79131;BME280;70394;45.194;9.142;2023-07-29T05:57:59;100507.47;;;26.33;58.30
79131;BME280;70394;45.194;9.142;2023-07-29T06:00:25;100504.38;;;26.28;58.34
79131;BME280;70394;45.194;9.142;2023-07-29T06:02:50;100502.09;;;26.42;57.84
79131;BME280;70394;45.194;9.142;2023-07-29T06:05:15;100500.66;;;26.56;57.14
79131;BME280;70394;45.194;9.142;2023-07-29T06:07:41;100506.56;;;26.59;56.97
79131;BME280;70394;45.194;9.142;2023-07-29T06:10:13;100506.94;;;26.64;57.02
79131;BME280;70394;45.194;9.142;2023-07-29T06:12:39;100496.81;;;26.66;56.93
79131;BME280;70394;45.194;9.142;2023-07-29T06:15:04;100501.56;;;26.73;56.93
79131;BME280;70394;45.194;9.142;2023-07-29T06:17:30;100510.69;;;26.72;56.55
79131;BME280;70394;45.194;9.142;2023-07-29T06:19:55;100511.56;;;26.72;56.54
79131;BME280;70394;45.194;9.142;2023-07-29T06:22:21;100511.38;;;26.74;56.51
79131;BME280;70394;45.194;9.142;2023-07-29T06:24:46;100521.50;;;26.72;56.84
79131;BME280;70394;45.194;9.142;2023-07-29T06:27:11;100514.72;;;26.67;56.61
79131;BME280;70394;45.194;9.142;2023-07-29T06:29:37;100525.91;;;26.73;56.44
79131;BME280;70394;45.194;9.142;2023-07-29T06:32:02;100531.50;;;26.71;56.55
79131;BME280;70394;45.194;9.142;2023-07-29T06:34:28;100536.03;;;26.71;56.59
79131;BME280;70394;45.194;9.142;2023-07-29T06:36:53;100539.75;;;26.70;56.90
79131;BME280;70394;45.194;9.142;2023-07-29T06:39:19;100528.06;;;26.69;56.79
79131;BME280;70394;45.194;9.142;2023-07-29T06:41:44;100530.47;;;26.72;56.54
79131;BME280;70394;45.194;9.142;2023-07-29T06:44:09;100532.66;;;26.69;56.85
79131;BME280;70394;45.194;9.142;2023-07-29T06:46:35;100534.28;;;26.61;56.72
79131;BME280;70394;45.194;9.142;2023-07-29T06:49:00;100531.50;;;26.71;56.63
79131;BME280;70394;45.194;9.142;2023-07-29T06:51:25;100521.50;;;26.72;56.65
79131;BME280;70394;45.194;9.142;2023-07-29T06:53:51;100519.47;;;26.74;56.69
79131;BME280;70394;45.194;9.142;2023-07-29T06:56:16;100517.63;;;26.74;56.86
79131;BME280;70394;45.194;9.142;2023-07-29T06:58:41;100518.44;;;26.66;56.85
79131;BME280;70394;45.194;9.142;2023-07-29T07:01:07;100517.59;;;26.66;57.00
79131;BME280;70394;45.194;9.142;2023-07-29T07:03:32;100530.63;;;26.71;57.20
79131;BME280;70394;45.194;9.142;2023-07-29T07:05:58;100534.69;;;26.75;56.96
79131;BME280;70394;45.194;9.142;2023-07-29T07:08:24;100534.50;;;26.68;57.49
79131;BME280;70394;45.194;9.142;2023-07-29T07:10:49;100540.28;;;26.73;57.36
79131;BME280;70394;45.194;9.142;2023-07-29T07:13:15;100537.72;;;26.72;57.58
79131;BME280;70394;45.194;9.142;2023-07-29T07:15:40;100534.69;;;26.75;57.18
79131;BME280;70394;45.194;9.142;2023-07-29T07:18:05;100534.69;;;26.75;57.02
79131;BME280;70394;45.194;9.142;2023-07-29T07:20:31;100538.81;;;26.79;56.94
79131;BME280;70394;45.194;9.142;2023-07-29T07:22:56;100537.59;;;26.81;57.04
79131;BME280;70394;45.194;9.142;2023-07-29T07:25:21;100541.84;;;26.84;57.16
79131;BME280;70394;45.194;9.142;2023-07-29T07:27:47;100539.53;;;26.89;57.23
79131;BME280;70394;45.194;9.142;2023-07-29T07:30:13;100533.28;;;26.89;56.92
79131;BME280;70394;45.194;9.142;2023-07-29T07:32:39;100531.38;;;26.81;57.07
79131;BME280;70394;45.194;9.142;2023-07-29T07:35:04;100523.94;;;26.83;57.29
79131;BME280;70394;45.194;9.142;2023-07-29T07:37:30;100537.16;;;26.86;56.94
79131;BME280;70394;45.194;9.142;2023-07-29T07:39:55;100528.72;;;26.89;56.71
79131;BME280;70394;45.194;9.142;2023-07-29T07:42:21;100525.84;;;26.91;56.94
79131;BME280;70394;45.194;9.142;2023-07-29T07:44:46;100520.94;;;26.94;56.36
79131;BME280;70394;45.194;9.142;2023-07-29T07:47:11;100522.47;;;26.97;56.57
79131;BME280;70394;45.194;9.142;2023-07-29T07:49:37;100526.88;;;26.98;56.53
79131;BME280;70394;45.194;9.142;2023-07-29T07:52:02;100523.34;;;26.98;56.26
79131;BME280;70394;45.194;9.142;2023-07-29T07:54:27;100523.00;;;27.01;56.22
79131;BME280;70394;45.194;9.142;2023-07-29T07:56:53;100522.69;;;27.04;56.68
79131;BME280;70394;45.194;9.142;2023-07-29T07:59:19;100522.53;;;27.05;56.35
79131;BME280;70394;45.194;9.142;2023-07-29T08:01:44;100525.53;;;27.02;56.53
79131;BME280;70394;45.194;9.142;2023-07-29T08:04:10;100523.34;;;27.06;56.58
79131;BME280;70394;45.194;9.142;2023-07-29T08:06:35;100519.81;;;27.05;56.68
79131;BME280;70394;45.194;9.142;2023-07-29T08:09:01;100522.34;;;27.07;56.49
79131;BME280;70394;45.194;9.142;2023-07-29T08:11:26;100518.13;;;27.04;56.53
79131;BME280;70394;45.194;9.142;2023-07-29T08:13:51;100518.63;;;27.08;56.27
79131;BME280;70394;45.194;9.142;2023-07-29T08:16:17;100512.19;;;27.09;56.21
79131;BME280;70394;45.194;9.142;2023-07-29T08:18:43;100504.25;;;27.07;56.23
79131;BME280;70394;45.194;9.142;2023-07-29T08:21:08;100509.53;;;27.17;55.30
79131;BME280;70394;45.194;9.142;2023-07-29T08:23:35;100506.78;;;27.09;55.77
79131;BME280;70394;45.194;9.142;2023-07-29T08:26:03;100504.25;;;27.07;56.21
79131;BME280;70394;45.194;9.142;2023-07-29T08:28:34;100501.75;;;27.14;56.52
79131;BME280;70394;45.194;9.142;2023-07-29T08:31:00;100505.66;;;27.20;56.15
79131;BME280;70394;45.194;9.142;2023-07-29T08:33:26;100500.41;;;27.18;56.03
79131;BME280;70394;45.194;9.142;2023-07-29T08:35:51;100500.72;;;27.23;55.73
79131;BME280;70394;45.194;9.142;2023-07-29T08:38:17;100499.72;;;27.24;55.98
79131;BME280;70394;45.194;9.142;2023-07-29T08:40:45;100506.81;;;27.26;55.79
79131;BME280;70394;45.194;9.142;2023-07-29T08:43:14;100505.66;;;27.28;56.03
79131;BME280;70394;45.194;9.142;2023-07-29T08:45:43;100506.19;;;27.32;56.33
79131;BME280;70394;45.194;9.142;2023-07-29T08:48:10;100502.28;;;27.34;56.51
79131;BME280;70394;45.194;9.142;2023-07-29T08:50:36;100499.56;;;27.34;56.23
79131;BME280;70394;45.194;9.142;2023-07-29T08:53:04;100508.22;;;27.38;54.98
79131;BME280;70394;45.194;9.142;2023-07-29T08:55:31;100507.19;;;27.39;56.06
79131;BME280;70394;45.194;9.142;2023-07-29T08:57:58;100499.41;;;27.36;55.19
79131;BME280;70394;45.194;9.142;2023-07-29T09:00:24;100502.13;;;27.36;54.22
79131;BME280;70394;45.194;9.142;2023-07-29T09:02:50;100501.78;;;27.39;54.90
79131;BME280;70394;45.194;9.142;2023-07-29T09:05:16;100498.06;;;27.40;54.55
79131;BME280;70394;45.194;9.142;2023-07-29T09:07:42;100503.47;;;27.40;55.37
79131;BME280;70394;45.194;9.142;2023-07-29T09:10:09;100498.06;;;27.40;55.00
79131;BME280;70394;45.194;9.142;2023-07-29T09:12:36;100489.78;;;27.42;54.71
79131;BME280;70394;45.194;9.142;2023-07-29T09:15:01;100495.19;;;27.42;54.78
79131;BME280;70394;45.194;9.142;2023-07-29T09:17:31;100493.16;;;27.44;55.09
79131;BME280;70394;45.194;9.142;2023-07-29T09:19:56;100493.84;;;27.46;54.86
79131;BME280;70394;45.194;9.142;2023-07-29T09:22:22;100488.56;;;27.44;54.63
79131;BME280;70394;45.194;9.142;2023-07-29T09:24:47;100483.88;;;27.46;55.51
79131;BME280;70394;45.194;9.142;2023-07-29T09:27:28;100484.53;;;27.48;54.72
79131;BME280;70394;45.194;9.142;2023-07-29T09:29:57;100481.50;;;27.51;54.63
79131;BME280;70394;45.194;9.142;2023-07-29T09:32:24;100479.81;;;27.50;54.40
79131;BME280;70394;45.194;9.142;2023-07-29T09:34:50;100476.56;;;27.47;54.57
79131;BME280;70394;45.194;9.142;2023-07-29T09:37:22;100466.41;;;27.49;54.37
79131;BME280;70394;45.194;9.142;2023-07-29T09:39:50;100472.03;;;27.47;53.46
79131;BME280;70394;45.194;9.142;2023-07-29T09:42:20;100471.53;;;27.52;53.28
79131;BME280;70394;45.194;9.142;2023-07-29T09:44:47;100465.41;;;27.50;54.73
79131;BME280;70394;45.194;9.142;2023-07-29T09:47:23;100464.94;;;27.55;54.41
79131;BME280;70394;45.194;9.142;2023-07-29T09:49:50;100460.84;;;27.50;53.81
79131;BME280;70394;45.194;9.142;2023-07-29T09:52:19;100448.97;;;27.43;53.70
79131;BME280;70394;45.194;9.142;2023-07-29T09:54:45;100456.81;;;27.55;53.52
79131;BME280;70394;45.194;9.142;2023-07-29T09:57:13;100460.69;;;27.52;53.48
79131;BME280;70394;45.194;9.142;2023-07-29T09:59:38;100458.84;;;27.52;52.23
79131;BME280;70394;45.194;9.142;2023-07-29T10:02:04;100450.69;;;27.61;54.03
79131;BME280;70394;45.194;9.142;2023-07-29T10:04:30;100452.06;;;27.57;54.22
79131;BME280;70394;45.194;9.142;2023-07-29T10:06:57;100460.34;;;27.63;54.48
79131;BME280;70394;45.194;9.142;2023-07-29T10:09:23;100452.91;;;27.65;54.96
79131;BME280;70394;45.194;9.142;2023-07-29T10:11:49;100453.41;;;27.61;53.36
79131;BME280;70394;45.194;9.142;2023-07-29T10:14:16;100454.94;;;27.63;53.64
79131;BME280;70394;45.194;9.142;2023-07-29T10:16:42;100445.28;;;27.61;53.32
79131;BME280;70394;45.194;9.142;2023-07-29T10:19:10;100444.47;;;27.60;53.11
79131;BME280;70394;45.194;9.142;2023-07-29T10:21:39;100442.94;;;27.66;53.61
79131;BME280;70394;45.194;9.142;2023-07-29T10:24:06;100448.00;;;27.69;52.90
79131;BME280;70394;45.194;9.142;2023-07-29T10:26:34;100449.84;;;27.69;52.90
79131;BME280;70394;45.194;9.142;2023-07-29T10:29:04;100447.84;;;27.71;53.40
79131;BME280;70394;45.194;9.142;2023-07-29T10:31:34;100453.41;;;27.69;52.94
79131;BME280;70394;45.194;9.142;2023-07-29T10:34:00;100459.34;;;27.73;52.40
79131;BME280;70394;45.194;9.142;2023-07-29T10:36:26;100451.38;;;27.71;52.91
79131;BME280;70394;45.194;9.142;2023-07-29T10:38:52;100444.78;;;27.74;52.85
79131;BME280;70394;45.194;9.142;2023-07-29T10:41:17;100452.56;;;27.77;52.89
79131;BME280;70394;45.194;9.142;2023-07-29T10:43:42;100446.31;;;27.68;53.94
79131;BME280;70394;45.194;9.142;2023-07-29T10:46:21;100443.94;;;27.73;51.48
79131;BME280;70394;45.194;9.142;2023-07-29T10:53:58;100439.84;;;27.77;52.83
79131;BME280;70394;45.194;9.142;2023-07-29T10:56:26;100441.75;;;27.60;54.03
79131;BME280;70394;45.194;9.142;2023-07-29T10:58:51;100435.13;;;27.71;53.66
79131;BME280;70394;45.194;9.142;2023-07-29T11:01:30;100433.59;;;27.69;53.26
79131;BME280;70394;45.194;9.142;2023-07-29T11:04:22;100438.19;;;27.60;53.70
79131;BME280;70394;45.194;9.142;2023-07-29T11:07:18;100436.81;;;27.72;53.44
79131;BME280;70394;45.194;9.142;2023-07-29T11:12:44;100437.50;;;27.83;53.41
79131;BME280;70394;45.194;9.142;2023-07-29T11:20:09;100431.72;;;27.77;52.79
79131;BME280;70394;45.194;9.142;2023-07-29T11:22:35;100430.03;;;27.85;53.37
79131;BME280;70394;45.194;9.142;2023-07-29T11:25:01;100422.25;;;27.82;53.83
79131;BME280;70394;45.194;9.142;2023-07-29T11:27:27;100417.66;;;27.82;53.57
79131;BME280;70394;45.194;9.142;2023-07-29T11:30:00;100417.50;;;27.84;53.79
79131;BME280;70394;45.194;9.142;2023-07-29T11:32:26;100413.13;;;27.83;53.74
79131;BME280;70394;45.194;9.142;2023-07-29T11:34:51;100415.47;;;27.86;53.28
79131;BME280;70394;45.194;9.142;2023-07-29T11:37:17;100405.34;;;27.79;53.26
79131;BME280;70394;45.194;9.142;2023-07-29T11:39:43;100412.44;;;27.80;54.43
79131;BME280;70394;45.194;9.142;2023-07-29T11:42:13;100411.41;;;27.90;53.57
79131;BME280;70394;45.194;9.142;2023-07-29T11:44:39;100415.47;;;27.86;52.89
79131;BME280;70394;45.194;9.142;2023-07-29T11:47:09;100404.63;;;27.77;53.05
79131;BME280;70394;45.194;9.142;2023-07-29T11:49:35;100399.06;;;27.79;53.06
79131;BME280;70394;45.194;9.142;2023-07-29T11:52:02;100397.53;;;27.85;53.64
79131;BME280;70394;45.194;9.142;2023-07-29T11:54:28;100400.91;;;27.87;53.06
79131;BME280;70394;45.194;9.142;2023-07-29T11:56:55;100383.97;;;27.85;53.32
79131;BME280;70394;45.194;9.142;2023-07-29T11:59:20;100381.59;;;27.90;52.69
79131;BME280;70394;45.194;9.142;2023-07-29T12:01:46;100386.34;;;27.88;53.76
79131;BME280;70394;45.194;9.142;2023-07-29T12:04:12;100379.91;;;27.89;53.55
79131;BME280;70394;45.194;9.142;2023-07-29T12:06:38;100382.59;;;27.89;53.11
79131;BME280;70394;45.194;9.142;2023-07-29T12:09:04;100381.28;;;27.85;53.02
79131;BME280;70394;45.194;9.142;2023-07-29T12:11:30;100382.59;;;27.89;53.45
79131;BME280;70394;45.194;9.142;2023-07-29T12:13:55;100372.63;;;27.89;52.97
79131;BME280;70394;45.194;9.142;2023-07-29T12:16:21;100374.16;;;27.84;53.33
79131;BME280;70394;45.194;9.142;2023-07-29T12:18:46;100370.09;;;27.88;53.21
79131;BME280;70394;45.194;9.142;2023-07-29T12:21:14;100368.03;;;27.90;53.07
79131;BME280;70394;45.194;9.142;2023-07-29T12:23:40;100366.34;;;27.89;52.47
79131;BME280;70394;45.194;9.142;2023-07-29T12:26:05;100355.50;;;27.89;52.77
79131;BME280;70394;45.194;9.142;2023-07-29T12:28:30;100355.16;;;27.92;53.63
79131;BME280;70394;45.194;9.142;2023-07-29T12:30:56;100354.50;;;27.90;53.45
79131;BME280;70394;45.194;9.142;2023-07-29T12:33:32;100349.22;;;27.97;53.76
79131;BME280;70394;45.194;9.142;2023-07-29T12:35:58;100341.81;;;27.90;53.15
79131;BME280;70394;45.194;9.142;2023-07-29T12:38:26;100340.94;;;27.90;53.25
79131;BME280;70394;45.194;9.142;2023-07-29T12:40:51;100339.75;;;27.92;53.15
79131;BME280;70394;45.194;9.142;2023-07-29T12:43:17;100344.72;;;27.80;53.44
79131;BME280;70394;45.194;9.142;2023-07-29T12:45:42;100345.03;;;27.86;53.13
79131;BME280;70394;45.194;9.142;2023-07-29T12:48:09;100348.06;;;27.91;53.42
79131;BME280;70394;45.194;9.142;2023-07-29T12:50:34;100347.75;;;27.86;52.91
79131;BME280;70394;45.194;9.142;2023-07-29T12:53:00;100336.19;;;27.92;53.06
79131;BME280;70394;45.194;9.142;2023-07-29T12:55:25;100339.63;;;27.86;53.21
79131;BME280;70394;45.194;9.142;2023-07-29T12:57:50;100335.53;;;27.90;53.00
79131;BME280;70394;45.194;9.142;2023-07-29T13:00:16;100332.50;;;27.85;53.58
79131;BME280;70394;45.194;9.142;2023-07-29T13:02:42;100327.38;;;27.98;52.94
79131;BME280;70394;45.194;9.142;2023-07-29T13:05:10;100335.19;;;27.93;52.97
79131;BME280;70394;45.194;9.142;2023-07-29T13:07:37;100324.69;;;27.98;52.81
79131;BME280;70394;45.194;9.142;2023-07-29T13:10:03;100329.09;;;27.91;53.09
79131;BME280;70394;45.194;9.142;2023-07-29T13:12:28;100322.31;;;27.95;52.78